sensor_id;sensor_type;location;lat;lon;timestamp;pressure;altitude;pressure_sealevel;temperature;humidity
59274;BME280;45044;41.572;24.730;2022-09-27T00:00:07;90761.38;;;14.38;100.00
59274;BME280;45044;41.572;24.730;2022-09-27T00:02:34;90761.88;;;14.49;100.00
59274;BME280;45044;41.572;24.730;2022-09-27T00:05:00;90770.97;;;14.48;100.00
59274;BME280;45044;41.572;24.730;2022-09-27T00:07:27;90759.59;;;14.52;100.00
59274;BME280;45044;41.572;24.730;2022-09-27T00:09:54;90750.72;;;14.42;100.00
59274;BME280;45044;41.572;24.730;2022-09-27T00:12:21;90748.81;;;14.42;100.00
59274;BME280;45044;41.572;24.730;2022-09-27T00:14:47;90737.75;;;14.47;100.00
59274;BME280;45044;41.572;24.730;2022-09-27T00:17:15;90734.44;;;14.43;100.00
59274;BME280;45044;41.572;24.730;2022-09-27T00:19:41;90735.75;;;14.35;100.00
59274;BME280;45044;41.572;24.730;2022-09-27T00:22:08;90737.00;;;14.47;100.00
59274;BME280;45044;41.572;24.730;2022-09-27T00:24:35;90747.56;;;14.47;100.00
59274;BME280;45044;41.572;24.730;2022-09-27T00:27:02;90737.06;;;14.43;100.00
59274;BME280;45044;41.572;24.730;2022-09-27T00:29:28;90735.38;;;14.53;100.00
59274;BME280;45044;41.572;24.730;2022-09-27T00:31:55;90727.81;;;14.35;100.00
59274;BME280;45044;41.572;24.730;2022-09-27T00:34:24;90749.66;;;14.56;100.00
59274;BME280;45044;41.572;24.730;2022-09-27T00:36:51;90750.91;;;14.68;100.00
59274;BME280;45044;41.572;24.730;2022-09-27T00:39:18;90736.03;;;14.74;100.00
59274;BME280;45044;41.572;24.730;2022-09-27T00:41:45;90719.59;;;14.66;100.00
59274;BME280;45044;41.572;24.730;2022-09-27T00:47:03;90710.00;;;14.72;100.00
59274;BME280;45044;41.572;24.730;2022-09-27T00:55:18;90701.50;;;14.65;100.00
59274;BME280;45044;41.572;24.730;2022-09-27T00:57:46;90705.88;;;14.71;100.00
59274;BME280;45044;41.572;24.730;2022-09-27T01:00:14;90687.59;;;14.77;100.00
59274;BME280;45044;41.572;24.730;2022-09-27T01:02:44;90690.03;;;14.88;100.00
59274;BME280;45044;41.572;24.730;2022-09-27T01:05:14;90694.22;;;14.85;100.00
59274;BME280;45044;41.572;24.730;2022-09-27T01:07:42;90704.47;;;14.83;100.00
59274;BME280;45044;41.572;24.730;2022-09-27T01:10:09;90693.81;;;14.87;100.00
59274;BME280;45044;41.572;24.730;2022-09-27T01:12:53;90681.41;;;14.84;100.00
59274;BME280;45044;41.572;24.730;2022-09-27T01:23:57;90676.28;;;14.77;100.00
59274;BME280;45044;41.572;24.730;2022-09-27T01:42:13;90680.16;;;14.89;100.00
59274;BME280;45044;41.572;24.730;2022-09-27T01:45:01;90686.03;;;14.96;100.00
59274;BME280;45044;41.572;24.730;2022-09-27T01:47:36;90682.91;;;14.85;100.00
59274;BME280;45044;41.572;24.730;2022-09-27T01:50:29;90662.06;;;14.87;100.00
59274;BME280;45044;41.572;24.730;2022-09-27T01:53:05;90648.81;;;14.87;100.00
59274;BME280;45044;41.572;24.730;2022-09-27T01:55:36;90641.72;;;14.84;100.00
59274;BME280;45044;41.572;24.730;2022-09-27T01:58:17;90642.53;;;14.81;100.00
59274;BME280;45044;41.572;24.730;2022-09-27T02:00:49;90649.66;;;14.67;100.00
59274;BME280;45044;41.572;24.730;2022-09-27T02:03:45;90639.06;;;14.67;100.00
59274;BME280;45044;41.572;24.730;2022-09-27T02:08:57;90666.78;;;14.46;100.00
59274;BME280;45044;41.572;24.730;2022-09-27T02:11:25;90662.53;;;14.48;100.00
59274;BME280;45044;41.572;24.730;2022-09-27T02:14:01;90667.19;;;14.44;100.00
59274;BME280;45044;41.572;24.730;2022-09-27T02:16:33;90675.94;;;14.41;100.00
59274;BME280;45044;41.572;24.730;2022-09-27T02:24:52;90659.50;;;14.33;100.00
59274;BME280;45044;41.572;24.730;2022-09-27T02:27:27;90648.34;;;14.25;100.00
59274;BME280;45044;41.572;24.730;2022-09-27T02:30:07;90664.03;;;14.33;100.00
59274;BME280;45044;41.572;24.730;2022-09-27T02:32:38;90649.09;;;14.26;100.00
59274;BME280;45044;41.572;24.730;2022-09-27T02:35:11;90656.84;;;14.17;100.00
59274;BME280;45044;41.572;24.730;2022-09-27T02:37:39;90644.94;;;14.08;100.00
59274;BME280;45044;41.572;24.730;2022-09-27T02:40:06;90635.88;;;14.26;100.00
59274;BME280;45044;41.572;24.730;2022-09-27T02:42:33;90624.28;;;14.20;100.00
59274;BME280;45044;41.572;24.730;2022-09-27T02:45:02;90633.38;;;14.19;100.00
59274;BME280;45044;41.572;24.730;2022-09-27T02:47:44;90637.75;;;14.09;100.00
59274;BME280;45044;41.572;24.730;2022-09-27T02:50:35;90653.25;;;13.90;100.00
59274;BME280;45044;41.572;24.730;2022-09-27T02:55:58;90624.34;;;13.99;100.00
59274;BME280;45044;41.572;24.730;2022-09-27T02:58:54;90631.84;;;13.84;100.00
59274;BME280;45044;41.572;24.730;2022-09-27T03:04:20;90630.44;;;13.80;100.00
59274;BME280;45044;41.572;24.730;2022-09-27T03:06:51;90638.53;;;13.89;100.00
59274;BME280;45044;41.572;24.730;2022-09-27T03:09:20;90631.47;;;14.03;100.00
59274;BME280;45044;41.572;24.730;2022-09-27T03:11:47;90625.19;;;14.13;100.00
59274;BME280;45044;41.572;24.730;2022-09-27T03:14:15;90612.16;;;14.06;100.00
59274;BME280;45044;41.572;24.730;2022-09-27T03:16:42;90605.22;;;14.29;100.00
59274;BME280;45044;41.572;24.730;2022-09-27T03:19:08;90586.88;;;14.38;100.00
59274;BME280;45044;41.572;24.730;2022-09-27T03:21:35;90598.19;;;14.39;100.00
59274;BME280;45044;41.572;24.730;2022-09-27T03:24:06;90610.06;;;14.47;100.00
59274;BME280;45044;41.572;24.730;2022-09-27T03:26:32;90600.69;;;14.29;100.00
59274;BME280;45044;41.572;24.730;2022-09-27T03:28:59;90597.06;;;14.23;100.00
59274;BME280;45044;41.572;24.730;2022-09-27T03:31:26;90611.34;;;14.25;100.00
59274;BME280;45044;41.572;24.730;2022-09-27T03:33:53;90596.38;;;14.19;100.00
59274;BME280;45044;41.572;24.730;2022-09-27T03:36:20;90577.56;;;14.17;100.00
59274;BME280;45044;41.572;24.730;2022-09-27T03:38:47;90592.25;;;14.34;100.00
59274;BME280;45044;41.572;24.730;2022-09-27T03:41:14;90600.25;;;14.31;100.00
59274;BME280;45044;41.572;24.730;2022-09-27T03:43:40;90589.94;;;14.36;100.00
59274;BME280;45044;41.572;24.730;2022-09-27T03:46:07;90588.72;;;14.24;100.00
59274;BME280;45044;41.572;24.730;2022-09-27T03:48:34;90589.50;;;14.21;100.00
59274;BME280;45044;41.572;24.730;2022-09-27T03:51:01;90573.00;;;14.17;100.00
59274;BME280;45044;41.572;24.730;2022-09-27T03:53:27;90574.56;;;14.15;100.00
59274;BME280;45044;41.572;24.730;2022-09-27T03:55:55;90559.88;;;13.97;100.00
59274;BME280;45044;41.572;24.730;2022-09-27T03:58:21;90570.19;;;13.91;100.00
59274;BME280;45044;41.572;24.730;2022-09-27T04:00:48;90575.41;;;13.58;100.00
59274;BME280;45044;41.572;24.730;2022-09-27T04:03:15;90576.44;;;13.64;100.00
59274;BME280;45044;41.572;24.730;2022-09-27T04:05:43;90566.84;;;13.53;100.00
59274;BME280;45044;41.572;24.730;2022-09-27T04:08:09;90599.88;;;13.62;100.00
59274;BME280;45044;41.572;24.730;2022-09-27T04:10:37;90593.75;;;13.65;100.00
59274;BME280;45044;41.572;24.730;2022-09-27T04:13:04;90580.66;;;13.41;100.00
59274;BME280;45044;41.572;24.730;2022-09-27T04:15:31;90595.69;;;13.03;100.00
59274;BME280;45044;41.572;24.730;2022-09-27T04:17:58;90589.19;;;13.28;100.00
59274;BME280;45044;41.572;24.730;2022-09-27T04:20:25;90581.97;;;12.92;100.00
59274;BME280;45044;41.572;24.730;2022-09-27T04:22:52;90587.28;;;13.09;100.00
59274;BME280;45044;41.572;24.730;2022-09-27T04:25:18;90577.34;;;13.16;100.00
59274;BME280;45044;41.572;24.730;2022-09-27T04:27:46;90568.09;;;12.88;100.00
59274;BME280;45044;41.572;24.730;2022-09-27T04:30:14;90581.00;;;13.02;100.00
59274;BME280;45044;41.572;24.730;2022-09-27T04:32:42;90572.47;;;12.94;100.00
59274;BME280;45044;41.572;24.730;2022-09-27T04:35:10;90571.91;;;12.83;100.00
59274;BME280;45044;41.572;24.730;2022-09-27T04:37:56;90576.22;;;12.97;100.00
59274;BME280;45044;41.572;24.730;2022-09-27T04:40:23;90564.91;;;12.97;100.00
59274;BME280;45044;41.572;24.730;2022-09-27T04:42:50;90562.19;;;13.00;100.00
59274;BME280;45044;41.572;24.730;2022-09-27T04:45:18;90564.91;;;13.17;100.00
59274;BME280;45044;41.572;24.730;2022-09-27T04:47:50;90549.63;;;13.08;100.00
59274;BME280;45044;41.572;24.730;2022-09-27T04:50:17;90556.94;;;13.00;100.00
59274;BME280;45044;41.572;24.730;2022-09-27T04:52:52;90558.09;;;12.99;100.00
59274;BME280;45044;41.572;24.730;2022-09-27T04:55:20;90568.94;;;13.22;100.00
59274;BME280;45044;41.572;24.730;2022-09-27T04:57:48;90572.53;;;13.32;100.00
59274;BME280;45044;41.572;24.730;2022-09-27T05:00:15;90579.91;;;13.20;100.00
59274;BME280;45044;41.572;24.730;2022-09-27T05:02:43;90575.81;;;13.19;100.00
59274;BME280;45044;41.572;24.730;2022-09-27T05:05:10;90575.94;;;13.32;100.00
59274;BME280;45044;41.572;24.730;2022-09-27T05:07:37;90589.75;;;12.99;100.00
59274;BME280;45044;41.572;24.730;2022-09-27T05:10:06;90577.25;;;13.61;100.00
59274;BME280;45044;41.572;24.730;2022-09-27T05:12:34;90586.28;;;13.80;100.00
59274;BME280;45044;41.572;24.730;2022-09-27T05:15:02;90586.53;;;13.86;100.00
59274;BME280;45044;41.572;24.730;2022-09-27T05:17:30;90577.78;;;14.06;100.00
59274;BME280;45044;41.572;24.730;2022-09-27T05:19:56;90573.50;;;14.29;100.00
59274;BME280;45044;41.572;24.730;2022-09-27T05:22:23;90582.00;;;14.36;100.00
59274;BME280;45044;41.572;24.730;2022-09-27T05:24:50;90577.13;;;14.35;100.00
59274;BME280;45044;41.572;24.730;2022-09-27T05:27:17;90581.41;;;14.45;100.00
59274;BME280;45044;41.572;24.730;2022-09-27T05:29:46;90575.16;;;14.22;100.00
59274;BME280;45044;41.572;24.730;2022-09-27T05:32:13;90586.88;;;14.38;100.00
59274;BME280;45044;41.572;24.730;2022-09-27T05:34:40;90567.34;;;14.48;100.00
59274;BME280;45044;41.572;24.730;2022-09-27T05:37:07;90567.16;;;14.72;100.00
59274;BME280;45044;41.572;24.730;2022-09-27T05:39:34;90565.06;;;14.97;100.00
59274;BME280;45044;41.572;24.730;2022-09-27T05:42:01;90572.19;;;15.13;100.00
59274;BME280;45044;41.572;24.730;2022-09-27T05:44:30;90588.41;;;15.15;100.00
59274;BME280;45044;41.572;24.730;2022-09-27T05:47:02;90578.56;;;15.29;100.00
59274;BME280;45044;41.572;24.730;2022-09-27T05:49:30;90573.72;;;15.40;100.00
59274;BME280;45044;41.572;24.730;2022-09-27T05:51:58;90576.69;;;15.42;100.00
59274;BME280;45044;41.572;24.730;2022-09-27T05:54:25;90580.47;;;15.15;100.00
59274;BME280;45044;41.572;24.730;2022-09-27T05:56:54;90584.00;;;14.95;100.00
59274;BME280;45044;41.572;24.730;2022-09-27T05:59:24;90570.81;;;14.62;100.00
59274;BME280;45044;41.572;24.730;2022-09-27T06:01:51;90572.78;;;14.75;100.00
59274;BME280;45044;41.572;24.730;2022-09-27T06:04:19;90574.75;;;14.87;100.00
59274;BME280;45044;41.572;24.730;2022-09-27T06:06:46;90538.97;;;14.82;100.00
59274;BME280;45044;41.572;24.730;2022-09-27T06:09:14;90571.22;;;15.07;100.00
59274;BME280;45044;41.572;24.730;2022-09-27T06:11:42;90559.81;;;15.10;100.00
59274;BME280;45044;41.572;24.730;2022-09-27T06:14:12;90554.41;;;14.84;100.00
59274;BME280;45044;41.572;24.730;2022-09-27T06:16:39;90572.09;;;14.70;100.00
59274;BME280;45044;41.572;24.730;2022-09-27T06:19:06;90575.53;;;15.01;100.00
59274;BME280;45044;41.572;24.730;2022-09-27T06:21:32;90571.72;;;15.02;100.00
59274;BME280;45044;41.572;24.730;2022-09-27T06:23:59;90589.41;;;15.05;100.00
59274;BME280;45044;41.572;24.730;2022-09-27T06:26:26;90596.19;;;15.06;100.00
59274;BME280;45044;41.572;24.730;2022-09-27T06:28:53;90574.22;;;14.92;100.00
59274;BME280;45044;41.572;24.730;2022-09-27T06:31:20;90572.66;;;15.25;100.00
59274;BME280;45044;41.572;24.730;2022-09-27T06:33:48;90576.25;;;15.31;100.00
59274;BME280;45044;41.572;24.730;2022-09-27T06:36:15;90575.44;;;15.60;100.00
59274;BME280;45044;41.572;24.730;2022-09-27T06:38:47;90568.25;;;15.74;100.00
59274;BME280;45044;41.572;24.730;2022-09-27T06:41:14;90574.06;;;15.81;100.00
59274;BME280;45044;41.572;24.730;2022-09-27T06:43:41;90575.03;;;15.88;100.00
59274;BME280;45044;41.572;24.730;2022-09-27T06:46:08;90567.41;;;15.77;100.00
59274;BME280;45044;41.572;24.730;2022-09-27T06:48:35;90569.09;;;15.97;100.00
59274;BME280;45044;41.572;24.730;2022-09-27T06:51:04;90567.94;;;16.24;100.00
59274;BME280;45044;41.572;24.730;2022-09-27T06:53:31;90557.66;;;16.26;100.00
59274;BME280;45044;41.572;24.730;2022-09-27T06:55:59;90567.84;;;16.63;100.00
59274;BME280;45044;41.572;24.730;2022-09-27T06:58:27;90567.81;;;16.76;100.00
59274;BME280;45044;41.572;24.730;2022-09-27T07:01:17;90567.44;;;16.87;100.00
59274;BME280;45044;41.572;24.730;2022-09-27T07:03:48;90569.19;;;16.81;100.00
59274;BME280;45044;41.572;24.730;2022-09-27T07:06:19;90571.22;;;16.99;100.00
59274;BME280;45044;41.572;24.730;2022-09-27T07:08:52;90548.13;;;16.86;100.00
59274;BME280;45044;41.572;24.730;2022-09-27T07:11:19;90583.31;;;17.00;100.00
59274;BME280;45044;41.572;24.730;2022-09-27T07:13:47;90591.59;;;17.02;100.00
59274;BME280;45044;41.572;24.730;2022-09-27T07:16:14;90561.22;;;17.03;100.00
59274;BME280;45044;41.572;24.730;2022-09-27T07:18:41;90580.78;;;17.64;100.00
59274;BME280;45044;41.572;24.730;2022-09-27T07:21:08;90572.38;;;17.97;100.00
59274;BME280;45044;41.572;24.730;2022-09-27T07:23:35;90574.00;;;17.63;100.00
59274;BME280;45044;41.572;24.730;2022-09-27T07:26:03;90568.53;;;18.58;100.00
59274;BME280;45044;41.572;24.730;2022-09-27T07:28:33;90574.34;;;19.13;97.58
59274;BME280;45044;41.572;24.730;2022-09-27T07:31:01;90583.00;;;18.38;97.60
59274;BME280;45044;41.572;24.730;2022-09-27T07:33:29;90586.63;;;17.81;100.00
59274;BME280;45044;41.572;24.730;2022-09-27T07:35:56;90574.59;;;17.67;100.00
59274;BME280;45044;41.572;24.730;2022-09-27T07:38:23;90577.69;;;17.97;100.00
59274;BME280;45044;41.572;24.730;2022-09-27T07:40:50;90573.34;;;18.22;99.83
59274;BME280;45044;41.572;24.730;2022-09-27T07:43:17;90571.31;;;18.45;99.05
59274;BME280;45044;41.572;24.730;2022-09-27T07:45:45;90564.56;;;19.00;94.85
59274;BME280;45044;41.572;24.730;2022-09-27T07:48:14;90571.94;;;18.49;96.86
59274;BME280;45044;41.572;24.730;2022-09-27T07:50:41;90566.34;;;18.85;97.43
59274;BME280;45044;41.572;24.730;2022-09-27T07:53:08;90579.13;;;18.21;100.00
59274;BME280;45044;41.572;24.730;2022-09-27T07:55:38;90567.97;;;18.73;95.77
59274;BME280;45044;41.572;24.730;2022-09-27T07:58:07;90570.47;;;18.67;93.79
59274;BME280;45044;41.572;24.730;2022-09-27T08:00:35;90569.69;;;20.13;84.80
59274;BME280;45044;41.572;24.730;2022-09-27T08:03:04;90587.72;;;20.28;81.41
59274;BME280;45044;41.572;24.730;2022-09-27T08:05:33;90585.63;;;21.05;76.59
59274;BME280;45044;41.572;24.730;2022-09-27T08:08:00;90570.81;;;21.20;70.52
59274;BME280;45044;41.572;24.730;2022-09-27T08:10:28;90557.88;;;22.24;67.84
59274;BME280;45044;41.572;24.730;2022-09-27T08:12:58;90580.47;;;23.21;64.16
59274;BME280;45044;41.572;24.730;2022-09-27T08:15:26;90573.72;;;23.05;61.51
59274;BME280;45044;41.572;24.730;2022-09-27T08:17:54;90576.97;;;22.32;63.46
59274;BME280;45044;41.572;24.730;2022-09-27T08:20:21;90579.84;;;21.22;67.71
59274;BME280;45044;41.572;24.730;2022-09-27T08:22:48;90579.22;;;21.73;69.82
59274;BME280;45044;41.572;24.730;2022-09-27T08:25:15;90564.69;;;21.04;68.80
59274;BME280;45044;41.572;24.730;2022-09-27T08:27:42;90574.47;;;20.58;78.07
59274;BME280;45044;41.572;24.730;2022-09-27T08:30:09;90578.28;;;20.91;74.35
59274;BME280;45044;41.572;24.730;2022-09-27T08:32:36;90568.91;;;20.96;75.82
59274;BME280;45044;41.572;24.730;2022-09-27T08:35:06;90570.59;;;22.29;66.12
59274;BME280;45044;41.572;24.730;2022-09-27T08:37:33;90556.00;;;22.30;65.26
59274;BME280;45044;41.572;24.730;2022-09-27T08:40:01;90555.47;;;22.47;61.49
59274;BME280;45044;41.572;24.730;2022-09-27T08:42:55;90569.88;;;23.12;60.70
59274;BME280;45044;41.572;24.730;2022-09-27T08:45:30;90558.25;;;22.17;62.45
59274;BME280;45044;41.572;24.730;2022-09-27T08:48:00;90550.13;;;22.26;65.27
59274;BME280;45044;41.572;24.730;2022-09-27T08:50:36;90544.75;;;20.16;75.83
59274;BME280;45044;41.572;24.730;2022-09-27T08:56:01;90549.06;;;19.70;84.50
59274;BME280;45044;41.572;24.730;2022-09-27T08:58:43;90547.84;;;20.49;78.17
59274;BME280;45044;41.572;24.730;2022-09-27T09:01:13;90547.94;;;21.03;75.64
59274;BME280;45044;41.572;24.730;2022-09-27T09:03:50;90552.38;;;19.56;83.26
59274;BME280;45044;41.572;24.730;2022-09-27T09:17:34;90560.50;;;20.05;85.09
59274;BME280;45044;41.572;24.730;2022-09-27T09:33:40;90533.03;;;22.80;62.88
59274;BME280;45044;41.572;24.730;2022-09-27T09:41:41;90527.84;;;24.54;56.88
59274;BME280;45044;41.572;24.730;2022-09-27T09:44:37;90520.44;;;24.37;56.03
59274;BME280;45044;41.572;24.730;2022-09-27T09:47:12;90516.53;;;24.93;55.04
59274;BME280;45044;41.572;24.730;2022-09-27T09:49:46;90519.47;;;24.40;59.38
59274;BME280;45044;41.572;24.730;2022-09-27T09:52:22;90510.31;;;24.64;54.23
59274;BME280;45044;41.572;24.730;2022-09-27T09:54:54;90513.78;;;24.26;58.32
59274;BME280;45044;41.572;24.730;2022-09-27T09:57:27;90504.41;;;25.95;56.04
59274;BME280;45044;41.572;24.730;2022-09-27T10:00:00;90517.34;;;25.45;54.34
59274;BME280;45044;41.572;24.730;2022-09-27T10:04:59;90522.38;;;23.98;59.60
59274;BME280;45044;41.572;24.730;2022-09-27T10:07:35;90524.84;;;22.69;70.22
59274;BME280;45044;41.572;24.730;2022-09-27T10:10:06;90523.94;;;20.79;77.20
59274;BME280;45044;41.572;24.730;2022-09-27T10:12:34;90539.31;;;20.59;87.69
59274;BME280;45044;41.572;24.730;2022-09-27T10:15:03;90533.38;;;20.40;90.46
59274;BME280;45044;41.572;24.730;2022-09-27T10:17:36;90520.16;;;20.86;88.45
59274;BME280;45044;41.572;24.730;2022-09-27T10:20:05;90519.94;;;20.99;85.98
59274;BME280;45044;41.572;24.730;2022-09-27T10:22:38;90520.09;;;20.31;90.49
59274;BME280;45044;41.572;24.730;2022-09-27T10:25:07;90512.88;;;19.45;100.00
59274;BME280;45044;41.572;24.730;2022-09-27T10:27:53;90513.25;;;18.81;100.00
59274;BME280;45044;41.572;24.730;2022-09-27T10:30:41;90511.78;;;18.89;100.00
59274;BME280;45044;41.572;24.730;2022-09-27T10:33:16;90491.50;;;18.36;100.00
59274;BME280;45044;41.572;24.730;2022-09-27T10:35:46;90500.50;;;19.04;100.00
59274;BME280;45044;41.572;24.730;2022-09-27T10:40:47;90486.66;;;18.72;100.00
59274;BME280;45044;41.572;24.730;2022-09-27T10:46:11;90497.75;;;19.85;100.00
59274;BME280;45044;41.572;24.730;2022-09-27T10:48:39;90504.06;;;19.63;100.00
59274;BME280;45044;41.572;24.730;2022-09-27T10:51:29;90500.19;;;19.30;100.00
59274;BME280;45044;41.572;24.730;2022-09-27T10:53:57;90501.81;;;19.09;100.00
59274;BME280;45044;41.572;24.730;2022-09-27T10:56:33;90495.78;;;18.99;100.00
59274;BME280;45044;41.572;24.730;2022-09-27T10:59:01;90488.84;;;18.73;100.00
59274;BME280;45044;41.572;24.730;2022-09-27T11:01:42;90498.03;;;18.63;100.00
59274;BME280;45044;41.572;24.730;2022-09-27T11:04:33;90482.63;;;18.95;100.00
59274;BME280;45044;41.572;24.730;2022-09-27T11:07:13;90484.22;;;19.11;100.00
59274;BME280;45044;41.572;24.730;2022-09-27T11:09:49;90483.78;;;19.03;100.00
59274;BME280;45044;41.572;24.730;2022-09-27T11:12:18;90470.94;;;18.83;100.00
59274;BME280;45044;41.572;24.730;2022-09-27T11:14:56;90472.28;;;18.88;100.00
59274;BME280;45044;41.572;24.730;2022-09-27T11:17:29;90480.44;;;18.56;100.00
59274;BME280;45044;41.572;24.730;2022-09-27T11:25:38;90477.31;;;18.58;100.00
59274;BME280;45044;41.572;24.730;2022-09-27T11:31:35;90475.56;;;18.54;100.00
59274;BME280;45044;41.572;24.730;2022-09-27T11:42:32;90463.44;;;18.35;100.00
59274;BME280;45044;41.572;24.730;2022-09-27T11:54:03;90440.75;;;18.02;100.00
59274;BME280;45044;41.572;24.730;2022-09-27T12:05:18;90450.84;;;18.54;100.00
59274;BME280;45044;41.572;24.730;2022-09-27T12:10:23;90454.69;;;18.25;100.00
59274;BME280;45044;41.572;24.730;2022-09-27T12:12:53;90443.75;;;18.32;100.00
59274;BME280;45044;41.572;24.730;2022-09-27T12:15:24;90442.69;;;18.11;100.00
59274;BME280;45044;41.572;24.730;2022-09-27T12:17:55;90441.97;;;18.10;100.00
59274;BME280;45044;41.572;24.730;2022-09-27T12:20:31;90439.19;;;18.33;100.00
59274;BME280;45044;41.572;24.730;2022-09-27T12:23:03;90436.22;;;18.40;100.00
59274;BME280;45044;41.572;24.730;2022-09-27T12:25:36;90440.66;;;18.43;100.00
59274;BME280;45044;41.572;24.730;2022-09-27T12:31:05;90431.03;;;18.17;100.00
59274;BME280;45044;41.572;24.730;2022-09-27T12:36:32;90421.28;;;17.95;100.00
59274;BME280;45044;41.572;24.730;2022-09-27T12:39:10;90421.63;;;18.26;100.00
59274;BME280;45044;41.572;24.730;2022-09-27T12:41:44;90389.69;;;18.26;100.00
59274;BME280;45044;41.572;24.730;2022-09-27T12:44:12;90397.22;;;18.46;100.00
59274;BME280;45044;41.572;24.730;2022-09-27T12:47:01;90398.81;;;18.06;100.00
59274;BME280;45044;41.572;24.730;2022-09-27T12:50:06;90397.78;;;18.13;100.00
59274;BME280;45044;41.572;24.730;2022-09-27T12:52:43;90397.53;;;18.20;100.00
59274;BME280;45044;41.572;24.730;2022-09-27T13:00:58;90413.34;;;18.24;100.00
59274;BME280;45044;41.572;24.730;2022-09-27T13:03:52;90416.56;;;18.47;100.00
59274;BME280;45044;41.572;24.730;2022-09-27T13:12:32;90404.16;;;18.43;100.00
59274;BME280;45044;41.572;24.730;2022-09-27T13:15:11;90421.03;;;18.40;100.00
59274;BME280;45044;41.572;24.730;2022-09-27T13:26:01;90391.16;;;18.27;100.00
59274;BME280;45044;41.572;24.730;2022-09-27T13:31:07;90411.69;;;18.45;100.00
59274;BME280;45044;41.572;24.730;2022-09-27T13:33:52;90410.47;;;17.90;100.00
59274;BME280;45044;41.572;24.730;2022-09-27T13:49:51;90408.69;;;17.68;100.00
59274;BME280;45044;41.572;24.730;2022-09-27T13:52:35;90399.72;;;18.03;100.00
59274;BME280;45044;41.572;24.730;2022-09-27T13:55:17;90368.81;;;17.87;100.00
59274;BME280;45044;41.572;24.730;2022-09-27T13:57:54;90379.75;;;17.89;100.00
59274;BME280;45044;41.572;24.730;2022-09-27T14:00:37;90376.50;;;17.94;100.00
59274;BME280;45044;41.572;24.730;2022-09-27T14:05:56;90390.56;;;18.04;100.00
59274;BME280;45044;41.572;24.730;2022-09-27T14:08:34;90396.56;;;17.76;100.00
59274;BME280;45044;41.572;24.730;2022-09-27T14:11:03;90386.19;;;17.59;100.00
59274;BME280;45044;41.572;24.730;2022-09-27T14:13:36;90386.25;;;17.78;100.00
59274;BME280;45044;41.572;24.730;2022-09-27T14:16:04;90403.34;;;17.68;100.00
59274;BME280;45044;41.572;24.730;2022-09-27T14:18:32;90398.91;;;17.65;100.00
59274;BME280;45044;41.572;24.730;2022-09-27T14:21:27;90392.41;;;17.56;100.00
59274;BME280;45044;41.572;24.730;2022-09-27T14:24:30;90399.50;;;17.69;100.00
59274;BME280;45044;41.572;24.730;2022-09-27T14:29:58;90400.66;;;17.49;100.00
59274;BME280;45044;41.572;24.730;2022-09-27T14:32:33;90396.53;;;17.48;100.00
59274;BME280;45044;41.572;24.730;2022-09-27T14:37:30;90417.53;;;17.23;100.00
59274;BME280;45044;41.572;24.730;2022-09-27T14:40:05;90425.50;;;17.23;100.00
59274;BME280;45044;41.572;24.730;2022-09-27T14:42:35;90416.41;;;17.43;100.00
59274;BME280;45044;41.572;24.730;2022-09-27T14:45:27;90403.41;;;17.36;100.00
59274;BME280;45044;41.572;24.730;2022-09-27T14:47:52;90399.63;;;17.46;100.00
59274;BME280;45044;41.572;24.730;2022-09-27T14:50:26;90403.63;;;17.60;100.00
59274;BME280;45044;41.572;24.730;2022-09-27T14:52:58;90412.31;;;17.52;100.00
59274;BME280;45044;41.572;24.730;2022-09-27T14:55:28;90403.63;;;17.60;100.00
59274;BME280;45044;41.572;24.730;2022-09-27T14:57:59;90403.31;;;17.49;100.00
59274;BME280;45044;41.572;24.730;2022-09-27T15:00:30;90408.84;;;17.32;100.00
59274;BME280;45044;41.572;24.730;2022-09-27T15:03:00;90409.50;;;17.46;100.00
59274;BME280;45044;41.572;24.730;2022-09-27T15:05:31;90410.66;;;17.35;100.00
59274;BME280;45044;41.572;24.730;2022-09-27T15:08:02;90395.72;;;17.29;100.00
59274;BME280;45044;41.572;24.730;2022-09-27T15:10:34;90400.94;;;17.42;100.00
59274;BME280;45044;41.572;24.730;2022-09-27T15:13:02;90395.34;;;17.49;100.00
59274;BME280;45044;41.572;24.730;2022-09-27T15:15:32;90394.78;;;17.64;100.00
59274;BME280;45044;41.572;24.730;2022-09-27T15:18:02;90381.06;;;17.65;100.00
59274;BME280;45044;41.572;24.730;2022-09-27T15:20:32;90381.78;;;17.56;100.00
59274;BME280;45044;41.572;24.730;2022-09-27T15:23:04;90374.44;;;17.70;100.00
59274;BME280;45044;41.572;24.730;2022-09-27T15:25:37;90382.66;;;17.53;100.00
59274;BME280;45044;41.572;24.730;2022-09-27T15:30:55;90383.09;;;17.52;100.00
59274;BME280;45044;41.572;24.730;2022-09-27T15:33:27;90389.84;;;17.43;100.00
59274;BME280;45044;41.572;24.730;2022-09-27T15:35:59;90390.03;;;17.08;100.00
59274;BME280;45044;41.572;24.730;2022-09-27T15:38:31;90409.34;;;17.08;100.00
59274;BME280;45044;41.572;24.730;2022-09-27T15:41:10;90413.69;;;16.93;100.00
59274;BME280;45044;41.572;24.730;2022-09-27T15:46:36;90400.59;;;16.98;100.00
59274;BME280;45044;41.572;24.730;2022-09-27T15:51:48;90388.25;;;17.05;100.00
59274;BME280;45044;41.572;24.730;2022-09-27T15:54:19;90393.69;;;17.01;100.00
59274;BME280;45044;41.572;24.730;2022-09-27T15:56:51;90352.78;;;16.89;100.00
59274;BME280;45044;41.572;24.730;2022-09-27T16:01:49;90362.09;;;16.62;100.00
59274;BME280;45044;41.572;24.730;2022-09-27T16:04:17;90365.03;;;16.86;100.00
59274;BME280;45044;41.572;24.730;2022-09-27T16:06:44;90374.09;;;16.76;100.00